Time;durP1;ratioP1;P1;durP2;ratioP2;P2;SDS_P1;SDS_P2;PMS_P1;PMS_P2;Temp;Humidity;BMP_temperature;BMP_pressure;BME280_temperature;BME280_humidity;BME280_pressure;Samples;Min_cycle;Max_cycle;Signal;HPM_P1;HPM_P2
2021/09/06 00:01:57;;;;;;;8.20;6.85;;;21.90;75.10;;;;;;5061536;28;20036;-62
2021/09/06 00:04:23;;;;;;;9.90;6.85;;;21.90;75.30;;;;;;5081277;28;20777;-62
2021/09/06 00:06:48;;;;;;;9.07;6.63;;;22.00;75.40;;;;;;5082698;28;20038;-62
2021/09/06 00:09:14;;;;;;;8.88;6.40;;;21.90;75.30;;;;;;5081601;28;20032;-62
2021/09/06 00:11:39;;;;;;;7.55;6.20;;;21.90;75.30;;;;;;5079898;28;20487;-62
2021/09/06 00:14:05;;;;;;;7.50;6.53;;;21.90;76.10;;;;;;5078970;28;20093;-62
2021/09/06 00:16:30;;;;;;;8.30;6.55;;;21.90;75.60;;;;;;5082154;28;20051;-62
2021/09/06 00:18:56;;;;;;;7.65;6.18;;;21.80;75.60;;;;;;5080165;28;20109;-62
2021/09/06 00:21:21;;;;;;;7.28;5.93;;;21.80;75.60;;;;;;5062894;28;20555;-62
2021/09/06 00:23:47;;;;;;;9.38;6.47;;;21.80;75.70;;;;;;5046052;28;20486;-63
2021/09/06 00:26:12;;;;;;;6.82;6.22;;;21.70;75.90;;;;;;5063649;28;20047;-62
2021/09/06 00:28:38;;;;;;;6.70;6.10;;;21.70;76.00;;;;;;5040366;28;20109;-62
2021/09/06 00:31:03;;;;;;;7.00;6.30;;;21.70;76.10;;;;;;5076691;28;20028;-62
2021/09/06 00:33:29;;;;;;;12.25;6.28;;;21.70;76.20;;;;;;5036053;28;20061;-62
2021/09/06 00:35:55;;;;;;;10.77;6.22;;;21.70;76.30;;;;;;5065099;28;20028;-62
2021/09/06 00:38:20;;;;;;;7.35;6.40;;;21.70;76.20;;;;;;5062970;28;20028;-62
2021/09/06 00:40:47;;;;;;;7.75;6.28;;;21.60;76.30;;;;;;5076791;28;20134;-63
2021/09/06 00:43:12;;;;;;;6.70;5.95;;;21.60;76.50;;;;;;5081101;28;20563;-62
2021/09/06 00:45:38;;;;;;;7.32;6.13;;;21.70;76.60;;;;;;5079770;28;20032;-62
2021/09/06 00:48:05;;;;;;;8.07;7.28;;;21.50;76.60;;;;;;5063700;28;20063;-62
2021/09/06 00:50:30;;;;;;;10.52;7.10;;;21.50;76.70;;;;;;5060368;28;20040;-62
2021/09/06 00:52:56;;;;;;;8.80;7.50;;;21.50;76.80;;;;;;5062237;28;20028;-61
2021/09/06 00:55:21;;;;;;;10.68;8.00;;;21.50;76.90;;;;;;5062109;28;20115;-62
2021/09/06 00:57:47;;;;;;;12.60;7.45;;;21.40;77.00;;;;;;5047044;28;20421;-62
2021/09/06 01:00:13;;;;;;;8.55;7.65;;;21.40;77.00;;;;;;5060355;28;20494;-62
2021/09/06 01:02:39;;;;;;;9.77;7.45;;;21.40;77.00;;;;;;5064505;28;20255;-62
2021/09/06 01:05:05;;;;;;;8.77;7.50;;;21.40;77.10;;;;;;5081079;28;20054;-62
2021/09/06 01:07:30;;;;;;;8.23;7.50;;;21.30;77.10;;;;;;5084603;28;20091;-62
2021/09/06 01:09:59;;;;;;;7.32;6.53;;;21.40;77.20;;;;;;5083382;28;20436;-62
2021/09/06 01:12:24;;;;;;;10.60;7.22;;;21.30;77.20;;;;;;5085556;28;20032;-63
2021/09/06 01:14:50;;;;;;;7.53;6.80;;;21.30;77.20;;;;;;5068073;28;20032;-62
2021/09/06 01:17:15;;;;;;;9.35;6.75;;;21.30;77.30;;;;;;5085005;28;20119;-62
2021/09/06 01:19:41;;;;;;;6.95;6.28;;;21.30;77.30;;;;;;5049923;28;20118;-62
2021/09/06 01:22:09;;;;;;;8.90;6.85;;;21.30;77.30;;;;;;5065819;28;20111;-62
2021/09/06 01:24:34;;;;;;;7.43;6.60;;;21.30;77.30;;;;;;5065242;28;20256;-62
2021/09/06 01:27:00;;;;;;;7.68;6.72;;;21.30;77.30;;;;;;5084942;28;20467;-62
2021/09/06 01:29:25;;;;;;;8.70;6.57;;;21.30;77.40;;;;;;5083999;28;20395;-62
2021/09/06 01:31:51;;;;;;;7.45;6.05;;;21.20;77.40;;;;;;5064609;28;20517;-62
2021/09/06 01:34:16;;;;;;;8.60;7.05;;;21.20;77.50;;;;;;5067285;28;20028;-62
2021/09/06 01:36:42;;;;;;;7.22;6.53;;;21.20;77.50;;;;;;5084340;28;20486;-62
2021/09/06 01:39:07;;;;;;;8.18;6.03;;;21.20;77.60;;;;;;5085081;28;20054;-62
2021/09/06 01:41:33;;;;;;;8.52;6.50;;;21.20;77.70;;;;;;5084327;28;20020;-62
2021/09/06 01:43:59;;;;;;;6.10;5.50;;;21.10;77.70;;;;;;5065117;28;20060;-62
2021/09/06 01:46:31;;;;;;;9.55;7.05;;;21.10;77.80;;;;;;5065740;28;20093;-62
2021/09/06 01:48:57;;;;;;;9.40;6.15;;;21.10;77.80;;;;;;5083823;28;20283;-62
2021/09/06 01:51:24;;;;;;;8.10;5.75;;;21.20;78.00;;;;;;5084133;28;20078;-61
2021/09/06 01:53:49;;;;;;;7.13;5.85;;;21.10;78.00;;;;;;5066691;28;20034;-62
2021/09/06 01:56:15;;;;;;;7.88;5.97;;;21.10;78.00;;;;;;5083674;28;20409;-62
2021/09/06 01:58:40;;;;;;;7.53;6.10;;;21.00;78.00;;;;;;5083748;28;20392;-62
2021/09/06 02:01:07;;;;;;;6.70;5.95;;;21.00;78.10;;;;;;5079567;28;20130;-62
2021/09/06 02:03:33;;;;;;;9.70;6.43;;;21.00;78.10;;;;;;5067839;28;20147;-62
2021/09/06 02:05:58;;;;;;;6.88;6.13;;;21.00;78.10;;;;;;5064737;28;20380;-62
2021/09/06 02:08:24;;;;;;;11.63;6.30;;;21.00;78.20;;;;;;5062818;28;20042;-62
2021/09/06 02:10:49;;;;;;;8.70;5.65;;;21.00;78.30;;;;;;5082798;28;20039;-62
2021/09/06 02:13:15;;;;;;;6.80;5.95;;;20.90;78.30;;;;;;5082712;28;20032;-62
2021/09/06 02:15:40;;;;;;;7.45;5.88;;;20.90;78.30;;;;;;5084076;28;20038;-62
2021/09/06 02:18:06;;;;;;;7.70;6.90;;;20.90;78.40;;;;;;5083782;28;20035;-62
2021/09/06 02:20:31;;;;;;;9.00;6.45;;;20.90;78.40;;;;;;5064068;28;20043;-62
2021/09/06 02:22:57;;;;;;;8.32;6.45;;;20.80;78.40;;;;;;5081222;28;21135;-62
2021/09/06 02:25:22;;;;;;;6.65;6.05;;;20.80;78.50;;;;;;5083053;28;20507;-62
2021/09/06 02:27:47;;;;;;;7.55;6.82;;;20.80;78.50;;;;;;5083291;28;20031;-62
2021/09/06 02:30:13;;;;;;;7.65;6.85;;;20.80;78.60;;;;;;5081896;28;20028;-62
2021/09/06 02:32:39;;;;;;;7.82;6.75;;;20.70;78.60;;;;;;5082958;28;20044;-62
2021/09/06 02:35:05;;;;;;;7.93;6.93;;;20.70;78.70;;;;;;5066133;28;20034;-62
2021/09/06 02:37:31;;;;;;;7.75;6.50;;;20.70;78.80;;;;;;5047643;28;20043;-62
2021/09/06 02:39:56;;;;;;;8.95;6.93;;;20.70;78.90;;;;;;5082317;28;20027;-62
2021/09/06 02:42:22;;;;;;;7.82;6.90;;;20.70;78.90;;;;;;5084371;28;20076;-62
2021/09/06 02:44:47;;;;;;;7.70;6.32;;;20.60;78.90;;;;;;5083641;28;20073;-62
2021/09/06 02:47:13;;;;;;;8.25;6.30;;;20.60;78.90;;;;;;5083493;28;20111;-61
2021/09/06 02:49:38;;;;;;;8.15;6.40;;;20.60;79.00;;;;;;5082754;28;20551;-62
2021/09/06 02:52:04;;;;;;;9.10;6.47;;;20.60;79.10;;;;;;5064373;28;20051;-62
2021/09/06 02:54:29;;;;;;;7.03;6.32;;;20.60;79.10;;;;;;5079965;28;20066;-62
2021/09/06 02:56:55;;;;;;;10.25;6.68;;;20.60;79.10;;;;;;5083686;28;20043;-62
2021/09/06 02:59:20;;;;;;;9.48;7.13;;;20.50;79.00;;;;;;5064322;28;20084;-62
2021/09/06 03:01:46;;;;;;;8.02;6.82;;;20.50;79.10;;;;;;5082063;28;20093;-62
2021/09/06 03:04:11;;;;;;;9.68;6.10;;;20.50;79.20;;;;;;5082959;28;20036;-62
2021/09/06 03:06:37;;;;;;;7.18;6.00;;;20.40;79.20;;;;;;5083354;28;20032;-62
2021/09/06 03:09:02;;;;;;;6.97;6.00;;;20.40;79.50;;;;;;5082071;28;20032;-62
2021/09/06 03:11:28;;;;;;;7.35;6.55;;;20.40;79.40;;;;;;5080010;28;20081;-62
2021/09/06 03:13:54;;;;;;;6.78;6.15;;;20.40;79.40;;;;;;5082241;28;20387;-62
2021/09/06 03:16:21;;;;;;;6.80;6.10;;;20.40;79.50;;;;;;5063998;28;20037;-62
2021/09/06 03:18:47;;;;;;;7.05;6.35;;;20.30;79.60;;;;;;5064404;28;20428;-62
2021/09/06 03:21:13;;;;;;;6.07;5.47;;;20.30;79.60;;;;;;5048374;28;20104;-62
2021/09/06 03:23:38;;;;;;;7.68;6.00;;;20.30;79.70;;;;;;5045906;28;20063;-62
2021/09/06 03:26:04;;;;;;;6.78;6.13;;;20.30;79.80;;;;;;5081146;28;20035;-62
2021/09/06 03:28:29;;;;;;;18.10;7.70;;;20.20;79.80;;;;;;5080331;28;20074;-62
2021/09/06 03:30:55;;;;;;;32.63;8.77;;;20.20;79.90;;;;;;5082308;28;20122;-62
2021/09/06 03:33:20;;;;;;;33.38;8.40;;;20.20;79.90;;;;;;5064368;28;20558;-62
2021/09/06 03:35:46;;;;;;;48.55;9.00;;;20.20;79.90;;;;;;5064761;28;21337;-62
2021/09/06 03:38:11;;;;;;;38.03;9.00;;;20.20;79.80;;;;;;5081952;28;20062;-62
2021/09/06 03:40:37;;;;;;;30.73;9.20;;;20.20;79.90;;;;;;5061604;28;20036;-62
2021/09/06 03:43:03;;;;;;;35.10;8.50;;;20.20;80.00;;;;;;5059763;28;20127;-61
2021/09/06 03:45:29;;;;;;;45.15;9.60;;;20.20;80.00;;;;;;5064691;28;20544;-62
2021/09/06 03:47:54;;;;;;;34.95;8.00;;;20.10;80.10;;;;;;5056182;28;20052;-62
2021/09/06 03:50:20;;;;;;;27.92;7.93;;;20.20;80.20;;;;;;5061665;28;20035;-62
2021/09/06 03:52:45;;;;;;;39.70;8.50;;;20.20;80.20;;;;;;5080485;28;20028;-62
2021/09/06 03:55:11;;;;;;;32.03;8.00;;;20.10;80.10;;;;;;5078509;28;20040;-62
2021/09/06 03:57:36;;;;;;;30.95;9.07;;;20.20;80.20;;;;;;5063383;28;20032;-61
2021/09/06 04:00:03;;;;;;;18.23;7.30;;;20.10;80.20;;;;;;5062314;28;20035;-62
2021/09/06 04:02:28;;;;;;;19.73;7.30;;;20.10;80.20;;;;;;5064463;28;20112;-62
2021/09/06 04:04:55;;;;;;;20.35;7.10;;;20.10;80.20;;;;;;5082004;28;20107;-61
2021/09/06 04:07:20;;;;;;;32.60;8.32;;;20.10;80.20;;;;;;5062968;28;20395;-62
2021/09/06 04:09:46;;;;;;;18.08;7.28;;;20.10;80.20;;;;;;5062725;28;20042;-62
2021/09/06 04:12:11;;;;;;;24.98;7.68;;;20.10;80.20;;;;;;5082859;28;20157;-62
2021/09/06 04:14:37;;;;;;;35.50;7.75;;;20.10;80.30;;;;;;5080721;28;20054;-62
2021/09/06 04:17:03;;;;;;;36.42;7.75;;;20.10;80.40;;;;;;5082697;28;20055;-62
2021/09/06 04:19:31;;;;;;;27.63;7.93;;;20.10;80.50;;;;;;5061932;28;20036;-62
2021/09/06 04:21:58;;;;;;;25.38;7.78;;;20.00;80.60;;;;;;5062969;28;20024;-63
2021/09/06 04:24:23;;;;;;;26.38;8.10;;;20.00;80.80;;;;;;5081029;28;20059;-62
2021/09/06 04:26:50;;;;;;;16.77;7.18;;;20.00;80.90;;;;;;5062568;28;20017;-62
2021/09/06 04:29:15;;;;;;;28.67;7.43;;;20.00;81.00;;;;;;5076628;28;20028;-62
2021/09/06 04:31:41;;;;;;;17.95;7.15;;;20.00;81.20;;;;;;5062178;28;20047;-60
2021/09/06 04:34:06;;;;;;;22.23;7.82;;;20.00;81.30;;;;;;5063288;28;20024;-61
2021/09/06 04:36:32;;;;;;;31.58;6.88;;;20.00;81.30;;;;;;5082643;28;20031;-62
2021/09/06 04:38:58;;;;;;;23.33;7.68;;;20.00;81.30;;;;;;5066640;28;20047;-62
2021/09/06 04:41:23;;;;;;;13.15;6.63;;;19.90;81.30;;;;;;5084562;28;20131;-62
2021/09/06 04:43:49;;;;;;;27.90;7.75;;;20.00;81.40;;;;;;5084393;28;20070;-62
2021/09/06 04:46:15;;;;;;;23.70;6.70;;;19.90;81.60;;;;;;5082828;28;20028;-62
2021/09/06 04:48:40;;;;;;;16.20;7.65;;;19.90;81.70;;;;;;5065481;28;20075;-62
2021/09/06 04:51:06;;;;;;;19.42;6.78;;;19.90;81.70;;;;;;5085184;28;20032;-62
2021/09/06 04:53:31;;;;;;;27.40;7.18;;;19.90;81.80;;;;;;5082240;28;20495;-62
2021/09/06 04:55:57;;;;;;;18.20;7.07;;;19.90;81.80;;;;;;5083637;28;20044;-62
2021/09/06 04:58:22;;;;;;;19.42;6.88;;;19.80;81.80;;;;;;5084781;28;20064;-62
2021/09/06 05:00:48;;;;;;;15.45;6.35;;;19.80;81.80;;;;;;5084868;28;20039;-62
2021/09/06 05:03:13;;;;;;;15.65;6.72;;;19.80;81.80;;;;;;5084774;28;20028;-62
2021/09/06 05:05:39;;;;;;;18.20;6.97;;;19.80;81.80;;;;;;5068076;28;20067;-62
2021/09/06 05:08:04;;;;;;;16.83;7.40;;;19.80;81.80;;;;;;5064410;28;20169;-62
2021/09/06 05:10:31;;;;;;;19.92;7.55;;;19.80;82.50;;;;;;5081524;28;20047;-62
2021/09/06 05:12:57;;;;;;;17.00;6.95;;;19.80;82.00;;;;;;5084596;28;20653;-62
2021/09/06 05:15:22;;;;;;;25.80;6.75;;;19.80;82.00;;;;;;5066730;28;20032;-62
2021/09/06 05:17:48;;;;;;;14.30;6.47;;;19.80;82.10;;;;;;5067241;28;20475;-62
2021/09/06 05:20:14;;;;;;;12.20;6.57;;;19.70;82.10;;;;;;5082571;28;20056;-62
2021/09/06 05:22:39;;;;;;;18.00;7.32;;;19.70;82.10;;;;;;5085165;28;20190;-62
2021/09/06 05:25:05;;;;;;;15.27;6.50;;;19.70;82.10;;;;;;5063148;28;20095;-62
2021/09/06 05:27:30;;;;;;;10.95;6.32;;;19.70;82.10;;;;;;5084715;28;20429;-62
2021/09/06 05:29:56;;;;;;;12.30;6.60;;;19.70;82.10;;;;;;5063409;28;20120;-62
2021/09/06 05:32:22;;;;;;;14.63;6.43;;;19.70;82.20;;;;;;5062087;28;20344;-62
2021/09/06 05:34:47;;;;;;;20.88;6.57;;;19.70;82.20;;;;;;5084821;28;20105;-62
2021/09/06 05:37:12;;;;;;;12.30;6.28;;;19.60;82.10;;;;;;5064553;28;20119;-62
2021/09/06 05:39:38;;;;;;;14.82;6.53;;;19.60;82.00;;;;;;5082816;28;20055;-61
2021/09/06 05:42:04;;;;;;;10.88;6.40;;;19.60;82.10;;;;;;5050335;28;20028;-62
2021/09/06 05:44:29;;;;;;;12.50;6.30;;;19.60;82.20;;;;;;5052226;28;20801;-62
2021/09/06 05:46:55;;;;;;;10.30;6.15;;;19.60;82.20;;;;;;5064951;28;20036;-63
2021/09/06 05:49:20;;;;;;;13.45;6.43;;;19.60;82.20;;;;;;5066183;28;20151;-62
2021/09/06 05:51:46;;;;;;;14.15;6.30;;;19.50;82.20;;;;;;5085734;28;20098;-62
2021/09/06 05:54:12;;;;;;;12.95;6.45;;;19.50;82.20;;;;;;5064173;28;20073;-62
2021/09/06 05:56:37;;;;;;;10.95;6.35;;;19.60;82.20;;;;;;5049252;28;20073;-62
2021/09/06 05:59:03;;;;;;;14.77;5.85;;;19.50;82.10;;;;;;5066146;28;20071;-62
2021/09/06 06:01:29;;;;;;;12.57;6.78;;;19.50;82.00;;;;;;5082890;28;20114;-61
2021/09/06 06:03:55;;;;;;;10.70;6.45;;;19.50;82.10;;;;;;5066529;28;20056;-62
2021/09/06 06:06:20;;;;;;;12.75;6.50;;;19.50;82.10;;;;;;5066903;28;20554;-62
2021/09/06 06:08:46;;;;;;;11.63;6.00;;;19.50;82.20;;;;;;5067269;28;20532;-62
2021/09/06 06:11:11;;;;;;;11.88;6.70;;;19.50;82.20;;;;;;5081545;28;20075;-62
2021/09/06 06:13:37;;;;;;;11.95;5.53;;;19.50;82.20;;;;;;5056813;28;20173;-62
2021/09/06 06:16:02;;;;;;;13.88;6.10;;;19.50;82.30;;;;;;5062423;28;20514;-62
2021/09/06 06:18:28;;;;;;;11.98;6.10;;;19.50;82.30;;;;;;5066326;28;20047;-62
2021/09/06 06:20:53;;;;;;;11.45;5.82;;;19.50;82.30;;;;;;5063430;28;20103;-62
2021/09/06 06:23:19;;;;;;;22.63;6.05;;;19.50;82.40;;;;;;5081547;28;20040;-62
2021/09/06 06:25:44;;;;;;;13.23;5.80;;;19.50;82.50;;;;;;5079281;28;20515;-63
2021/09/06 06:28:10;;;;;;;18.70;5.45;;;19.50;82.50;;;;;;5081909;28;20028;-62
2021/09/06 06:30:35;;;;;;;9.77;5.97;;;19.50;82.50;;;;;;5082907;28;20604;-62
2021/09/06 06:33:02;;;;;;;11.73;5.70;;;19.50;82.60;;;;;;5082375;28;20567;-65
2021/09/06 06:35:27;;;;;;;10.43;5.78;;;19.50;82.70;;;;;;5079403;28;20472;-62
2021/09/06 06:37:53;;;;;;;13.23;5.93;;;19.50;82.60;;;;;;5081807;28;20075;-62
2021/09/06 06:40:18;;;;;;;13.13;6.03;;;19.50;82.60;;;;;;5064163;28;20114;-62
2021/09/06 06:42:44;;;;;;;10.90;6.05;;;19.50;82.50;;;;;;5064488;28;20020;-62
2021/09/06 06:45:10;;;;;;;11.02;5.95;;;19.50;82.60;;;;;;5080490;28;20107;-62
2021/09/06 06:47:35;;;;;;;14.20;6.38;;;19.60;82.70;;;;;;5083076;28;20107;-62
2021/09/06 06:50:01;;;;;;;18.23;5.68;;;19.50;82.70;;;;;;5062457;28;20278;-62
2021/09/06 06:52:26;;;;;;;9.68;5.65;;;19.50;82.70;;;;;;5081834;28;20494;-62
2021/09/06 06:54:52;;;;;;;16.38;6.68;;;19.50;82.70;;;;;;5083997;28;20024;-61
2021/09/06 06:57:18;;;;;;;11.85;6.25;;;19.50;82.60;;;;;;5064439;28;20117;-62
2021/09/06 06:59:44;;;;;;;18.55;6.80;;;19.50;82.70;;;;;;5081572;28;20453;-62
2021/09/06 07:02:09;;;;;;;22.00;6.28;;;19.50;82.80;;;;;;5080716;28;20498;-62
2021/09/06 07:04:35;;;;;;;12.93;6.75;;;19.50;82.70;;;;;;5079616;28;20511;-62
2021/09/06 07:07:00;;;;;;;29.73;7.93;;;19.50;83.40;;;;;;5080623;28;20039;-62
2021/09/06 07:09:26;;;;;;;15.18;7.00;;;19.50;83.70;;;;;;5067296;28;20037;-62
2021/09/06 07:11:51;;;;;;;19.15;6.68;;;19.50;84.30;;;;;;5061109;28;20024;-62
2021/09/06 07:14:17;;;;;;;20.55;7.38;;;19.50;84.40;;;;;;5077862;28;20020;-62
2021/09/06 07:16:42;;;;;;;17.25;7.65;;;19.40;84.70;;;;;;5059282;28;20047;-62
2021/09/06 07:19:08;;;;;;;18.08;6.93;;;19.40;85.00;;;;;;5077649;28;20047;-62
2021/09/06 07:21:33;;;;;;;26.02;7.80;;;19.40;85.30;;;;;;5082294;28;20059;-61
2021/09/06 07:23:59;;;;;;;28.80;7.82;;;19.30;85.80;;;;;;5073177;28;20702;-62
2021/09/06 07:26:24;;;;;;;39.40;10.00;;;19.30;85.80;;;;;;5065983;28;20314;-62
2021/09/06 07:28:50;;;;;;;32.65;9.13;;;19.30;86.00;;;;;;5059733;28;20115;-62
2021/09/06 07:31:15;;;;;;;22.65;8.20;;;19.30;86.00;;;;;;5060907;28;21062;-62
2021/09/06 07:33:41;;;;;;;27.88;7.38;;;19.30;86.00;;;;;;5073770;28;20078;-62
2021/09/06 07:36:07;;;;;;;21.70;7.63;;;19.30;86.00;;;;;;5076971;28;20361;-62
2021/09/06 07:38:32;;;;;;;15.23;7.78;;;19.30;86.00;;;;;;5059578;28;20480;-61
2021/09/06 07:40:58;;;;;;;26.38;7.82;;;19.30;86.00;;;;;;5081743;28;20409;-62
2021/09/06 07:43:23;;;;;;;21.65;7.20;;;19.30;86.10;;;;;;5080981;28;20475;-62
2021/09/06 07:45:49;;;;;;;14.98;7.38;;;19.40;86.10;;;;;;5075893;28;20426;-62
2021/09/06 07:48:15;;;;;;;27.52;7.38;;;19.20;86.00;;;;;;5060744;28;20039;-62
2021/09/06 07:50:41;;;;;;;25.88;7.57;;;19.40;86.10;;;;;;5079385;28;20034;-62
2021/09/06 07:53:07;;;;;;;23.88;8.00;;;19.30;86.10;;;;;;5079716;28;20438;-62
2021/09/06 07:55:32;;;;;;;24.52;7.65;;;19.40;86.20;;;;;;5059858;28;20059;-62
2021/09/06 07:57:58;;;;;;;18.23;6.85;;;19.40;86.00;;;;;;5064067;28;20031;-62
2021/09/06 08:00:23;;;;;;;16.85;6.85;;;19.40;85.60;;;;;;5057849;28;20032;-62
2021/09/06 08:02:49;;;;;;;23.48;7.30;;;19.40;85.70;;;;;;5081829;28;20028;-62
2021/09/06 08:05:22;;;;;;;21.50;7.43;;;19.40;85.40;;;;;;5081161;28;20024;-62
2021/09/06 08:07:47;;;;;;;25.63;7.85;;;19.50;85.50;;;;;;5061706;28;20333;-62
2021/09/06 08:10:13;;;;;;;15.32;6.88;;;19.50;85.40;;;;;;5059176;28;20059;-62
2021/09/06 08:12:39;;;;;;;18.88;7.18;;;19.50;85.40;;;;;;5044001;28;20032;-61
2021/09/06 08:15:06;;;;;;;16.38;6.97;;;19.50;85.00;;;;;;5060536;28;20383;-62
2021/09/06 08:17:34;;;;;;;17.67;6.90;;;19.50;85.10;;;;;;5078486;28;20159;-62
2021/09/06 08:19:59;;;;;;;16.73;6.80;;;19.50;85.30;;;;;;5079687;28;21783;-62
2021/09/06 08:22:25;;;;;;;23.05;7.93;;;19.60;84.90;;;;;;5080256;28;20059;-62
2021/09/06 08:24:50;;;;;;;19.35;7.90;;;19.50;84.70;;;;;;5081272;28;20518;-62
2021/09/06 08:27:16;;;;;;;17.25;7.13;;;19.60;85.00;;;;;;5059974;28;20158;-62
2021/09/06 08:29:42;;;;;;;17.20;7.93;;;19.60;84.90;;;;;;5078935;28;20148;-62
2021/09/06 08:32:07;;;;;;;29.90;7.70;;;19.60;85.00;;;;;;5061971;28;20043;-62
2021/09/06 08:34:33;;;;;;;18.02;8.38;;;19.60;84.80;;;;;;5061334;28;20035;-62
2021/09/06 08:36:58;;;;;;;17.35;7.10;;;19.70;84.90;;;;;;5062727;28;20048;-62
2021/09/06 08:39:24;;;;;;;31.50;8.10;;;19.70;84.90;;;;;;5080228;28;20055;-62
2021/09/06 08:41:49;;;;;;;32.67;8.57;;;19.70;84.90;;;;;;5082250;28;20115;-62
2021/09/06 08:44:15;;;;;;;26.20;8.43;;;19.70;85.00;;;;;;5062960;28;20127;-62
2021/09/06 08:46:41;;;;;;;23.65;8.07;;;19.70;84.90;;;;;;5064354;28;20522;-62
2021/09/06 08:49:06;;;;;;;24.33;7.53;;;19.70;84.90;;;;;;5061156;28;20043;-61
2021/09/06 08:51:33;;;;;;;31.80;8.93;;;19.80;84.70;;;;;;5061679;28;20028;-62
2021/09/06 08:53:58;;;;;;;28.30;9.00;;;19.80;84.80;;;;;;5060143;28;20336;-62
2021/09/06 08:56:26;;;;;;;27.73;9.32;;;19.80;84.50;;;;;;5063198;28;20043;-62
2021/09/06 08:58:52;;;;;;;25.85;8.50;;;19.80;84.30;;;;;;5045403;28;20033;-63
2021/09/06 09:01:17;;;;;;;40.33;9.57;;;19.90;84.20;;;;;;5051145;28;20069;-61
2021/09/06 09:03:43;;;;;;;34.55;8.52;;;19.90;84.40;;;;;;5049277;28;20035;-62
2021/09/06 09:06:08;;;;;;;31.25;8.45;;;19.90;84.40;;;;;;5080179;28;20128;-62
2021/09/06 09:08:34;;;;;;;28.35;8.23;;;20.00;84.40;;;;;;5079445;28;20028;-62
2021/09/06 09:11:01;;;;;;;39.28;9.88;;;20.00;84.40;;;;;;5060880;28;20114;-62
2021/09/06 09:13:29;;;;;;;39.33;10.60;;;20.00;84.30;;;;;;5060946;28;21229;-62
2021/09/06 09:15:54;;;;;;;29.35;9.85;;;20.00;84.20;;;;;;5077330;28;20073;-62
2021/09/06 09:18:28;;;;;;;36.90;10.43;;;20.00;84.20;;;;;;5058891;28;20024;-62
2021/09/06 09:21:05;;;;;;;49.22;10.05;;;20.00;84.00;;;;;;5078411;28;20066;-62
2021/09/06 09:23:44;;;;;;;47.28;11.23;;;20.10;83.80;;;;;;5060855;28;20044;-62
2021/09/06 09:26:10;;;;;;;32.03;10.30;;;20.10;84.50;;;;;;5067442;28;20463;-62
2021/09/06 09:28:43;;;;;;;39.35;9.20;;;20.10;83.60;;;;;;5078785;28;20433;-62
2021/09/06 09:31:13;;;;;;;48.80;9.32;;;20.20;83.50;;;;;;5079715;28;20527;-62
2021/09/06 09:33:46;;;;;;;30.40;8.80;;;20.20;83.30;;;;;;5082080;28;20425;-62
2021/09/06 09:36:11;;;;;;;51.47;10.85;;;20.20;82.90;;;;;;5082408;28;20028;-61
2021/09/06 09:38:37;;;;;;;40.97;9.40;;;20.20;82.70;;;;;;5063838;28;20081;-63
2021/09/06 09:41:13;;;;;;;40.97;9.40;;;20.20;82.50;;;;;;5061731;28;20414;-62
2021/09/06 09:43:39;;;;;;;37.20;9.20;;;20.30;82.30;;;;;;5072458;28;20132;-62
2021/09/06 09:46:05;;;;;;;28.73;9.00;;;20.30;82.20;;;;;;5063909;28;20520;-62
2021/09/06 09:48:30;;;;;;;27.58;8.15;;;20.30;82.00;;;;;;5065528;28;20036;-62
2021/09/06 09:50:56;;;;;;;27.67;8.23;;;20.30;81.70;;;;;;5079669;28;20753;-62
2021/09/06 09:53:22;;;;;;;35.83;8.55;;;20.40;81.30;;;;;;5080355;28;20082;-63
2021/09/06 09:55:47;;;;;;;40.05;9.98;;;20.40;81.10;;;;;;5045397;28;20230;-62
2021/09/06 09:58:16;;;;;;;28.05;8.90;;;20.40;81.30;;;;;;5063260;28;20135;-62
2021/09/06 10:00:41;;;;;;;31.85;8.93;;;20.50;81.10;;;;;;5083341;28;20998;-62
2021/09/06 10:03:07;;;;;;;33.42;8.63;;;20.50;80.80;;;;;;5063792;28;20540;-62
2021/09/06 10:05:33;;;;;;;23.90;8.35;;;20.50;80.60;;;;;;5063774;28;20032;-62
2021/09/06 10:08:12;;;;;;;40.10;9.43;;;20.50;80.60;;;;;;5047127;28;20142;-62
2021/09/06 10:10:39;;;;;;;55.05;10.40;;;20.50;80.50;;;;;;5048772;28;20028;-62
2021/09/06 10:13:06;;;;;;;47.58;8.95;;;20.60;80.60;;;;;;5064006;28;20099;-61
2021/09/06 10:15:32;;;;;;;56.13;11.18;;;20.60;80.60;;;;;;5081598;28;20035;-62
2021/09/06 10:18:00;;;;;;;37.65;9.32;;;20.60;80.70;;;;;;5047339;28;20028;-62
2021/09/06 10:20:26;;;;;;;34.03;9.57;;;20.60;80.50;;;;;;5079188;28;20086;-62
2021/09/06 10:23:06;;;;;;;36.67;11.07;;;20.70;80.50;;;;;;5080536;28;20114;-62
2021/09/06 10:25:33;;;;;;;48.30;10.63;;;20.70;80.40;;;;;;5063310;28;20455;-62
2021/09/06 10:28:03;;;;;;;36.38;9.43;;;20.80;80.30;;;;;;5079961;28;20039;-62
2021/09/06 10:30:48;;;;;;;48.90;10.88;;;20.80;80.10;;;;;;5059867;28;20526;-62
2021/09/06 10:33:28;;;;;;;64.15;12.85;;;20.90;80.10;;;;;;5057590;28;20012;-62
2021/09/06 10:36:10;;;;;;;54.35;10.85;;;20.90;80.90;;;;;;5077015;28;20035;-62
2021/09/06 10:38:49;;;;;;;48.92;10.30;;;20.90;80.20;;;;;;5083661;28;20024;-62
2021/09/06 10:41:19;;;;;;;49.35;11.20;;;21.00;80.00;;;;;;5045366;28;20078;-62
2021/09/06 10:43:50;;;;;;;46.13;10.45;;;21.00;79.70;;;;;;5078701;28;20450;-62
2021/09/06 10:46:16;;;;;;;44.78;10.13;;;21.10;79.70;;;;;;5061063;28;20229;-62
2021/09/06 10:48:42;;;;;;;43.22;9.48;;;21.10;79.50;;;;;;5046761;28;20020;-62
2021/09/06 10:51:09;;;;;;;35.92;9.00;;;21.10;79.40;;;;;;5081359;28;20055;-62
2021/09/06 10:53:35;;;;;;;46.00;9.43;;;21.20;79.40;;;;;;5063728;28;20107;-63
2021/09/06 10:56:00;;;;;;;35.47;10.15;;;21.20;79.30;;;;;;5079879;28;20107;-62
2021/09/06 10:58:27;;;;;;;52.35;11.10;;;21.30;79.20;;;;;;5042468;28;20012;-62
2021/09/06 11:00:54;;;;;;;42.42;8.90;;;21.30;79.10;;;;;;5064458;28;20161;-62
2021/09/06 11:03:24;;;;;;;43.38;9.52;;;21.30;78.90;;;;;;5047220;28;20554;-62
2021/09/06 11:05:57;;;;;;;28.55;8.88;;;21.40;79.00;;;;;;5061499;28;20101;-62
2021/09/06 11:08:33;;;;;;;36.38;9.23;;;21.40;79.00;;;;;;5080695;28;20352;-62
2021/09/06 11:10:59;;;;;;;38.17;9.05;;;21.50;78.70;;;;;;5062039;28;20110;-62
2021/09/06 11:13:35;;;;;;;40.30;9.15;;;21.50;78.60;;;;;;5060836;28;20036;-62
2021/09/06 11:16:02;;;;;;;47.85;9.38;;;21.50;78.70;;;;;;5079425;28;20444;-62
2021/09/06 11:18:32;;;;;;;30.60;9.18;;;21.60;78.50;;;;;;5063380;28;20709;-62
2021/09/06 11:20:57;;;;;;;40.60;9.38;;;21.60;78.40;;;;;;5063370;28;20024;-62
2021/09/06 11:23:30;;;;;;;37.10;10.18;;;21.70;78.20;;;;;;5063641;28;20473;-62
2021/09/06 11:25:55;;;;;;;42.47;8.60;;;21.70;78.00;;;;;;5062256;28;20040;-62
2021/09/06 11:28:21;;;;;;;35.83;8.90;;;21.80;77.60;;;;;;5080892;28;20076;-62
2021/09/06 11:30:46;;;;;;;34.25;9.25;;;21.90;77.50;;;;;;5062255;28;20036;-62
2021/09/06 11:33:14;;;;;;;34.55;7.82;;;21.90;77.10;;;;;;5055932;28;20051;-62
2021/09/06 11:35:41;;;;;;;35.95;7.90;;;22.00;76.80;;;;;;5061849;28;20122;-63
2021/09/06 11:38:07;;;;;;;33.90;8.25;;;22.00;76.60;;;;;;5077116;28;20028;-62
2021/09/06 11:40:33;;;;;;;36.55;8.07;;;22.10;76.50;;;;;;5082076;28;20074;-62
2021/09/06 11:42:58;;;;;;;27.63;8.15;;;22.10;76.30;;;;;;5047208;28;20024;-62
2021/09/06 11:45:24;;;;;;;35.88;8.05;;;22.20;76.00;;;;;;5064747;28;20553;-62
2021/09/06 11:47:50;;;;;;;31.88;7.90;;;22.30;75.40;;;;;;5058021;28;20030;-62
2021/09/06 11:50:16;;;;;;;59.30;10.35;;;22.30;75.00;;;;;;5080991;28;20111;-63
2021/09/06 11:52:43;;;;;;;51.22;8.93;;;22.40;74.70;;;;;;5061359;28;20055;-63
2021/09/06 11:55:19;;;;;;;30.80;7.40;;;22.50;74.10;;;;;;5060688;28;20027;-62
2021/09/06 11:57:45;;;;;;;46.10;7.85;;;22.60;73.30;;;;;;5063995;28;20027;-62
2021/09/06 12:00:11;;;;;;;46.38;7.70;;;22.70;73.10;;;;;;5063537;28;20038;-62
2021/09/06 12:02:50;;;;;;;25.42;8.07;;;22.70;72.60;;;;;;5077817;28;20036;-63
2021/09/06 12:05:16;;;;;;;26.20;7.28;;;22.80;72.60;;;;;;5074736;28;20065;-62
2021/09/06 12:07:56;;;;;;;24.02;7.10;;;22.90;72.00;;;;;;5076420;28;20402;-62
2021/09/06 12:10:32;;;;;;;33.42;7.32;;;22.90;71.80;;;;;;5080036;28;20059;-62
2021/09/06 12:13:07;;;;;;;27.90;7.30;;;23.00;71.80;;;;;;5080629;28;20063;-63
2021/09/06 12:15:37;;;;;;;23.23;7.70;;;23.10;71.40;;;;;;5080826;28;20028;-62
2021/09/06 12:18:13;;;;;;;35.05;7.60;;;23.10;71.00;;;;;;5082571;28;20305;-62
2021/09/06 12:20:40;;;;;;;35.05;7.82;;;23.20;70.90;;;;;;5044866;28;20039;-62
2021/09/06 12:23:07;;;;;;;37.22;7.70;;;23.30;70.60;;;;;;5045026;28;20085;-62
2021/09/06 12:25:32;;;;;;;27.17;6.40;;;23.30;70.00;;;;;;5082636;28;20041;-62
2021/09/06 12:28:12;;;;;;;39.78;7.38;;;23.40;69.50;;;;;;5081213;28;20571;-62
2021/09/06 12:30:41;;;;;;;35.92;7.40;;;23.50;69.50;;;;;;5080053;28;20379;-63
2021/09/06 12:33:07;;;;;;;32.45;7.80;;;23.50;69.40;;;;;;5058376;28;20024;-63
2021/09/06 12:35:33;;;;;;;30.80;7.32;;;23.60;69.40;;;;;;5062067;28;20032;-62